createdAt,value
2022-08-17T00:00:43.570Z,8.13
2022-08-17T00:03:09.965Z,7.67
2022-08-17T00:05:41.313Z,12.03
2022-08-17T00:08:11.493Z,11.93
2022-08-17T00:10:40.890Z,11.90
2022-08-17T00:13:10.168Z,12.53
2022-08-17T00:15:38.307Z,9.37
2022-08-17T00:19:01.627Z,9.20
2022-08-17T00:20:55.289Z,12.20
2022-08-17T00:23:23.552Z,9.47
2022-08-17T00:25:53.216Z,13.63
2022-08-17T00:28:21.780Z,11.63
2022-08-17T00:30:52.864Z,8.57
2022-08-17T00:33:25.088Z,9.30
2022-08-17T00:35:54.177Z,11.47
2022-08-17T00:38:23.867Z,11.13
2022-08-17T00:40:59.170Z,13.33
2022-08-17T00:43:32.345Z,9.87
2022-08-17T00:46:01.646Z,9.83
2022-08-17T00:48:30.964Z,9.80
2022-08-17T00:51:11.357Z,13.77
2022-08-17T00:53:45.278Z,10.10
2022-08-17T00:56:20.830Z,11.70
2022-08-17T00:58:50.307Z,9.33
2022-08-17T01:01:21.634Z,8.93
2022-08-17T01:03:51.572Z,9.03
2022-08-17T01:06:19.948Z,9.23
2022-08-17T01:08:48.784Z,9.30
2022-08-17T01:11:27.504Z,13.90
2022-08-17T01:13:55.390Z,11.50
2022-08-17T01:16:28.214Z,9.93
2022-08-17T01:18:59.642Z,11.13
2022-08-17T01:21:33.092Z,8.87
2022-08-17T01:24:02.726Z,13.03
2022-08-17T01:26:32.845Z,9.23
2022-08-17T01:29:02.647Z,9.80
2022-08-17T01:31:34.463Z,9.53
2022-08-17T01:34:05.814Z,10.63
2022-08-17T01:36:35.268Z,10.93
2022-08-17T01:39:05.652Z,9.00
2022-08-17T01:41:33.713Z,11.40
2022-08-17T01:44:05.063Z,10.43
2022-08-17T01:46:37.108Z,10.80
2022-08-17T01:49:09.186Z,8.27
2022-08-17T01:51:37.723Z,15.20
2022-08-17T01:54:11.386Z,10.27
2022-08-17T01:56:42.790Z,10.33
2022-08-17T01:59:11.337Z,8.93
2022-08-17T02:01:39.866Z,10.07
2022-08-17T02:04:09.415Z,12.30
2022-08-17T02:06:42.793Z,8.97
2022-08-17T02:09:25.571Z,8.83
2022-08-17T02:11:54.496Z,11.90
2022-08-17T02:14:23.314Z,11.43
2022-08-17T02:16:51.797Z,10.87
2022-08-17T02:19:20.342Z,10.27
2022-08-17T02:21:51.057Z,10.23
2022-08-17T02:25:00.857Z,9.17
2022-08-17T02:27:11.524Z,9.23
2022-08-17T02:29:39.639Z,10.60
2022-08-17T02:32:11.136Z,9.23
2022-08-17T02:34:49.322Z,8.80
2022-08-17T02:37:18.616Z,8.30
2022-08-17T02:39:46.867Z,9.37
2022-08-17T02:42:17.048Z,8.43
2022-08-17T02:44:45.029Z,10.33
2022-08-17T02:47:13.624Z,12.43
2022-08-17T02:49:46.273Z,9.13
2022-08-17T02:52:43.217Z,8.57
2022-08-17T02:55:14.178Z,8.70
2022-08-17T02:57:43.553Z,8.70
2022-08-17T03:00:15.451Z,8.73
2022-08-17T03:02:45.148Z,8.77
2022-08-17T03:05:15.529Z,9.40
2022-08-17T03:07:43.608Z,10.40
2022-08-17T03:10:12.693Z,9.43
2022-08-17T03:12:43.317Z,8.80
2022-08-17T03:15:14.676Z,9.73
2022-08-17T03:17:42.846Z,8.37
2022-08-17T03:20:12.510Z,14.70
2022-08-17T03:22:48.047Z,11.00
2022-08-17T03:25:24.802Z,8.07
2022-08-17T03:27:54.527Z,8.10
2022-08-17T03:30:25.222Z,7.33
2022-08-17T03:32:56.193Z,9.00
2022-08-17T03:35:26.198Z,9.50
2022-08-17T03:38:00.125Z,12.07
2022-08-17T03:40:34.392Z,7.63
2022-08-17T03:43:22.348Z,8.23
2022-08-17T03:46:10.930Z,7.80
2022-08-17T03:49:15.497Z,7.40
2022-08-17T03:52:00.947Z,6.40
2022-08-17T03:54:48.511Z,6.83
2022-08-17T03:57:16.580Z,7.13
2022-08-17T03:59:46.122Z,8.10
2022-08-17T04:02:19.542Z,6.53
2022-08-17T04:04:50.621Z,8.47
2022-08-17T04:07:19.217Z,6.60
2022-08-17T04:09:47.147Z,6.27
2022-08-17T04:12:17.161Z,6.20
2022-08-17T04:14:53.445Z,6.70
2022-08-17T04:17:24.600Z,7.53
2022-08-17T04:19:53.549Z,8.37
2022-08-17T04:22:30.823Z,6.97
2022-08-17T04:25:16.586Z,17.20
2022-08-17T04:27:48.683Z,12.23
2022-08-17T04:30:20.147Z,8.83
2022-08-17T04:33:03.713Z,7.37
2022-08-17T04:35:36.955Z,6.73
2022-08-17T04:38:05.084Z,8.70
2022-08-17T04:40:50.860Z,8.97
2022-08-17T04:43:21.963Z,10.03
2022-08-17T04:45:56.340Z,7.90
2022-08-17T04:48:35.676Z,6.87
2022-08-17T04:51:08.176Z,9.47
2022-08-17T04:53:36.282Z,7.23
2022-08-17T04:56:04.755Z,6.97
2022-08-17T04:58:34.868Z,6.37
2022-08-17T05:01:05.758Z,9.20
2022-08-17T05:03:33.807Z,8.77
2022-08-17T05:06:01.888Z,11.33
2022-08-17T05:08:29.898Z,6.30
2022-08-17T05:10:57.841Z,8.23
2022-08-17T05:13:29.550Z,9.03
2022-08-17T05:16:00.108Z,8.10
2022-08-17T05:18:30.863Z,5.43
2022-08-17T05:20:58.990Z,7.33
2022-08-17T05:23:41.759Z,10.10
2022-08-17T05:26:25.840Z,7.67
2022-08-17T05:28:57.255Z,8.13
2022-08-17T05:31:29.350Z,6.83
2022-08-17T05:33:58.945Z,8.67
2022-08-17T05:36:41.933Z,6.10
2022-08-17T05:39:16.385Z,9.07
2022-08-17T05:41:47.364Z,6.50
2022-08-17T05:44:15.340Z,6.87
2022-08-17T05:46:49.068Z,5.87
2022-08-17T05:49:23.879Z,6.23
2022-08-17T05:52:19.892Z,8.77
2022-08-17T05:55:10.964Z,7.33
2022-08-17T05:58:09.364Z,6.43
2022-08-17T06:00:44.483Z,6.37
2022-08-17T06:03:34.072Z,11.83
2022-08-17T06:06:18.057Z,8.00
2022-08-17T06:08:51.931Z,15.67
2022-08-17T06:11:28.203Z,11.10
2022-08-17T06:14:29.493Z,9.83
2022-08-17T06:17:03.457Z,6.23
2022-08-17T06:19:38.073Z,42.57
2022-08-17T06:22:09.608Z,15.30
2022-08-17T06:24:43.385Z,8.27
2022-08-17T06:27:19.479Z,16.47
2022-08-17T06:29:54.787Z,6.80
2022-08-17T06:32:25.682Z,7.23
2022-08-17T06:34:54.203Z,9.20
2022-08-17T06:38:00.360Z,12.30
2022-08-17T06:40:55.510Z,6.70
2022-08-17T06:43:32.574Z,9.60
2022-08-17T06:46:11.336Z,9.37
2022-08-17T06:48:46.710Z,8.73
2022-08-17T06:51:23.083Z,6.53
2022-08-17T06:54:01.011Z,7.63
2022-08-17T06:56:52.964Z,15.80
2022-08-17T06:59:53.247Z,14.10
2022-08-17T07:02:29.104Z,11.13
2022-08-17T07:05:19.199Z,10.47
2022-08-17T07:08:02.829Z,16.33
2022-08-17T07:10:37.858Z,12.87
2022-08-17T07:13:29.266Z,14.17
2022-08-17T07:16:08.860Z,11.77
2022-08-17T07:18:37.354Z,9.30
2022-08-17T07:21:17.644Z,7.43
2022-08-17T07:24:01.601Z,8.03
2022-08-17T07:26:30.918Z,7.00
2022-08-17T07:29:02.248Z,8.60
2022-08-17T07:31:31.555Z,8.70
2022-08-17T07:34:04.056Z,8.73
2022-08-17T07:36:33.836Z,8.90
2022-08-17T07:39:03.729Z,6.40
2022-08-17T07:41:53.201Z,11.93
2022-08-17T07:44:26.508Z,5.80
2022-08-17T07:47:15.470Z,8.73
2022-08-17T07:49:48.928Z,6.43
2022-08-17T07:52:51.099Z,7.30
2022-08-17T07:55:29.318Z,12.23
2022-08-17T07:58:00.457Z,12.20
2022-08-17T08:00:32.218Z,6.93
2022-08-17T08:03:16.784Z,7.93
2022-08-17T08:05:54.752Z,6.40
2022-08-17T08:08:31.121Z,10.60
2022-08-17T08:11:03.106Z,6.70
2022-08-17T08:13:33.280Z,6.47
2022-08-17T08:16:24.214Z,4.43
2022-08-17T08:18:57.155Z,5.00
2022-08-17T08:21:43.946Z,5.20
2022-08-17T08:24:40.141Z,8.20
2022-08-17T08:27:18.284Z,8.30
2022-08-17T08:29:55.071Z,5.33
2022-08-17T08:32:38.307Z,5.17
2022-08-17T08:35:10.346Z,4.53
2022-08-17T08:37:46.916Z,8.90
2022-08-17T08:40:34.270Z,5.70
2022-08-17T08:43:16.971Z,9.17
2022-08-17T08:45:57.043Z,6.83
2022-08-17T08:48:52.945Z,7.03
2022-08-17T08:51:35.839Z,4.90
2022-08-17T08:54:09.462Z,9.37
2022-08-17T08:56:58.987Z,5.73
2022-08-17T08:59:35.052Z,7.03
2022-08-17T09:02:24.752Z,6.53
2022-08-17T09:05:14.281Z,4.17
2022-08-17T09:07:57.740Z,5.17
2022-08-17T09:10:31.631Z,9.83
2022-08-17T09:13:19.078Z,6.43
2022-08-17T09:15:52.383Z,8.17
2022-08-17T09:18:59.243Z,9.50
2022-08-17T09:21:21.421Z,6.40
2022-08-17T09:24:02.331Z,5.57
2022-08-17T09:26:39.423Z,5.00
2022-08-17T09:29:10.166Z,5.37
2022-08-17T09:31:47.054Z,8.47
2022-08-17T09:34:33.225Z,4.87
2022-08-17T09:37:14.285Z,5.07
2022-08-17T09:39:52.925Z,5.10
2022-08-17T09:42:27.048Z,4.90
2022-08-17T09:45:03.920Z,6.63
2022-08-17T09:47:45.328Z,6.10
2022-08-17T09:51:03.971Z,5.53
2022-08-17T09:53:10.651Z,5.17
2022-08-17T09:55:52.945Z,7.57
2022-08-17T09:58:30.437Z,8.13
2022-08-17T10:01:05.919Z,9.67
2022-08-17T10:03:55.734Z,5.83
2022-08-17T10:06:30.871Z,9.97
2022-08-17T10:09:08.131Z,8.50
2022-08-17T10:12:00.287Z,6.47
2022-08-17T10:14:43.680Z,7.13
2022-08-17T10:17:26.125Z,7.17
2022-08-17T10:20:02.773Z,7.30
2022-08-17T10:23:02.344Z,6.23
2022-08-17T10:25:54.983Z,8.60
2022-08-17T10:28:29.386Z,9.30
2022-08-17T10:31:33.281Z,9.63
2022-08-17T10:34:01.687Z,12.53
2022-08-17T10:36:46.306Z,9.00
2022-08-17T10:39:26.160Z,10.10
2022-08-17T10:42:00.650Z,7.40
2022-08-17T10:44:42.302Z,10.57
2022-08-17T10:47:12.703Z,10.73
2022-08-17T10:49:46.127Z,7.23
2022-08-17T10:52:48.548Z,10.87
2022-08-17T10:55:20.539Z,9.10
2022-08-17T10:57:51.107Z,9.90
2022-08-17T11:01:12.582Z,8.13
2022-08-17T11:03:54.040Z,10.90
2022-08-17T11:06:31.327Z,14.70
2022-08-17T11:09:35.009Z,17.97
2022-08-17T11:12:37.575Z,11.50
2022-08-17T11:15:34.946Z,13.60
2022-08-17T11:18:20.978Z,11.30
2022-08-17T11:21:27.927Z,13.57
2022-08-17T11:24:15.643Z,10.93
2022-08-17T11:26:49.656Z,11.07
2022-08-17T11:29:24.955Z,10.73
2022-08-17T11:32:08.250Z,12.13
2022-08-17T11:34:42.145Z,15.53
2022-08-17T11:37:47.173Z,16.27
2022-08-17T11:40:35.768Z,12.17
2022-08-17T11:43:25.602Z,14.97
2022-08-17T11:46:11.754Z,11.57
2022-08-17T11:49:03.085Z,16.93
2022-08-17T11:51:58.294Z,14.97
2022-08-17T11:54:45.040Z,16.53
2022-08-17T11:58:01.082Z,15.83
2022-08-17T12:00:56.304Z,15.80
2022-08-17T12:03:55.309Z,16.93
2022-08-17T12:06:48.259Z,16.27
2022-08-17T12:09:21.341Z,18.63
2022-08-17T12:12:12.893Z,15.20
2022-08-17T12:17:41.389Z,15.97
2022-08-17T12:20:20.094Z,17.73
2022-08-17T12:23:00.792Z,16.63
2022-08-17T12:25:36.103Z,19.47
2022-08-17T12:28:07.594Z,16.23
2022-08-17T12:30:37.369Z,17.20
2022-08-17T12:33:13.284Z,20.00
2022-08-17T12:36:02.714Z,28.17
2022-08-17T12:38:34.746Z,20.47
2022-08-17T12:41:25.312Z,18.93
2022-08-17T12:44:01.910Z,18.37
2022-08-17T12:46:33.597Z,19.90
2022-08-17T12:49:19.288Z,19.10
2022-08-17T12:51:50.304Z,25.63
2022-08-17T12:54:33.749Z,24.33
2022-08-17T12:57:07.053Z,27.90
2022-08-17T12:59:35.160Z,21.83
2022-08-17T13:02:03.145Z,22.27
2022-08-17T13:04:32.798Z,22.73
2022-08-17T13:07:02.120Z,21.73
2022-08-17T13:09:35.899Z,26.57
2022-08-17T13:12:09.187Z,21.53
2022-08-17T13:14:37.260Z,23.63
2022-08-17T13:17:09.922Z,18.00
2022-08-17T13:19:49.323Z,29.20
2022-08-17T13:22:23.422Z,23.90
2022-08-17T13:24:56.713Z,20.00
2022-08-17T13:27:29.549Z,21.13
2022-08-17T13:30:00.856Z,24.33
2022-08-17T13:32:43.627Z,21.33
2022-08-17T13:35:48.290Z,23.00
2022-08-17T13:38:41.540Z,25.63
2022-08-17T13:41:29.450Z,24.10
2022-08-17T13:43:57.418Z,22.50
2022-08-17T13:46:32.043Z,19.30
2022-08-17T13:49:03.195Z,16.23
2022-08-17T13:51:36.753Z,26.10
2022-08-17T13:54:18.826Z,18.93
2022-08-17T13:56:57.507Z,15.20
2022-08-17T13:59:54.868Z,20.63
2022-08-17T14:02:28.575Z,19.17
2022-08-17T14:05:00.463Z,24.00
2022-08-17T14:07:32.047Z,23.17
2022-08-17T14:10:05.580Z,20.03
2022-08-17T14:12:35.288Z,20.23
2022-08-17T14:15:03.553Z,22.60
2022-08-17T14:17:36.506Z,22.17
2022-08-17T14:20:10.912Z,17.40
2022-08-17T14:22:41.062Z,18.50
2022-08-17T14:25:13.285Z,18.83
2022-08-17T14:27:52.893Z,18.93
2022-08-17T14:30:24.644Z,24.80
2022-08-17T14:32:53.530Z,24.10
2022-08-17T14:35:23.845Z,20.63
2022-08-17T14:37:52.969Z,25.07
2022-08-17T14:40:25.497Z,18.90
2022-08-17T14:42:55.702Z,19.77
2022-08-17T14:45:30.389Z,24.07
2022-08-17T14:48:04.947Z,20.73
2022-08-17T14:50:35.492Z,22.20
2022-08-17T14:53:05.088Z,25.37
2022-08-17T14:55:34.495Z,24.97
2022-08-17T14:58:03.852Z,22.50
2022-08-17T15:00:31.778Z,17.50
2022-08-17T15:03:01.211Z,23.20
2022-08-17T15:05:32.470Z,23.23
2022-08-17T15:08:01.707Z,28.40
2022-08-17T15:10:30.671Z,29.77
2022-08-17T15:13:00.678Z,30.37
2022-08-17T15:15:30.090Z,28.30
2022-08-17T15:17:59.603Z,29.70
2022-08-17T15:20:30.578Z,29.73
2022-08-17T15:22:59.673Z,39.10
2022-08-17T15:25:29.967Z,32.23
2022-08-17T15:28:00.465Z,38.93
2022-08-17T15:30:30.040Z,36.73
2022-08-17T15:32:59.721Z,27.20
2022-08-17T15:35:31.512Z,33.87
2022-08-17T15:38:08.088Z,36.87
2022-08-17T15:40:40.864Z,30.70
2022-08-17T15:43:14.718Z,33.37
2022-08-17T15:45:42.950Z,28.50
2022-08-17T15:48:11.270Z,30.60
2022-08-17T15:50:39.158Z,30.50
2022-08-17T15:53:07.108Z,29.50
2022-08-17T15:55:36.609Z,38.17
2022-08-17T15:58:04.636Z,28.97
2022-08-17T16:00:47.137Z,27.23
2022-08-17T16:03:56.039Z,31.87
2022-08-17T16:06:09.868Z,40.40
2022-08-17T16:08:44.637Z,38.17
2022-08-17T16:11:14.020Z,26.77
2022-08-17T16:13:42.819Z,42.77
2022-08-17T16:16:28.854Z,36.73
2022-08-17T16:18:59.298Z,42.17
2022-08-17T16:21:27.791Z,41.27
2022-08-17T16:24:00.260Z,43.10
2022-08-17T16:26:29.365Z,37.80
2022-08-17T16:28:59.503Z,38.63
2022-08-17T16:31:30.748Z,38.40
2022-08-17T16:34:15.917Z,45.00
2022-08-17T16:36:51.803Z,33.93
2022-08-17T16:39:22.723Z,35.67
2022-08-17T16:41:50.652Z,35.13
2022-08-17T16:44:21.439Z,51.80
2022-08-17T16:46:51.151Z,36.33
2022-08-17T16:49:36.039Z,34.10
2022-08-17T16:52:09.609Z,43.73
2022-08-17T16:54:39.485Z,46.80
2022-08-17T16:57:07.445Z,51.93
2022-08-17T16:59:41.031Z,50.93
2022-08-17T17:02:14.915Z,54.30
2022-08-17T17:04:50.295Z,60.40
2022-08-17T17:07:51.895Z,48.07
2022-08-17T17:10:23.274Z,50.77
2022-08-17T17:13:01.985Z,46.10
2022-08-17T17:15:41.384Z,44.27
2022-08-17T17:18:13.870Z,39.37
2022-08-17T17:20:50.341Z,38.13
2022-08-17T17:23:35.911Z,35.40
2022-08-17T17:26:30.187Z,40.47
2022-08-17T17:29:11.724Z,35.83
2022-08-17T17:31:49.036Z,32.13
2022-08-17T17:34:20.430Z,35.63
2022-08-17T17:36:52.862Z,38.53
2022-08-17T17:39:29.125Z,44.33
2022-08-17T17:42:00.348Z,38.47
2022-08-17T17:44:33.229Z,37.90
2022-08-17T17:47:03.282Z,39.23
2022-08-17T17:49:36.098Z,36.50
2022-08-17T17:52:15.531Z,34.30
2022-08-17T17:55:00.043Z,35.83
2022-08-17T17:57:44.096Z,34.53
2022-08-17T18:00:16.300Z,34.17
2022-08-17T18:03:04.824Z,35.80
2022-08-17T18:06:18.667Z,37.77
2022-08-17T18:09:08.596Z,37.43
2022-08-17T18:12:04.575Z,32.53
2022-08-17T18:14:51.319Z,35.77
2022-08-17T18:17:20.107Z,35.23
2022-08-17T18:19:48.253Z,31.63
2022-08-17T18:22:21.478Z,35.73
2022-08-17T18:24:55.973Z,38.43
2022-08-17T18:27:32.272Z,34.83
2022-08-17T18:30:08.637Z,34.40
2022-08-17T18:32:40.713Z,36.70
2022-08-17T18:35:31.308Z,31.97
2022-08-17T18:38:20.943Z,34.60
2022-08-17T18:40:59.726Z,36.37
2022-08-17T18:43:44.457Z,37.20
2022-08-17T18:46:28.616Z,38.00
2022-08-17T18:49:00.452Z,38.13
2022-08-17T18:51:40.779Z,40.10
2022-08-17T18:54:20.145Z,37.50
2022-08-17T18:56:54.175Z,45.10
2022-08-17T18:59:29.567Z,39.17
2022-08-17T19:02:37.334Z,42.40
2022-08-17T19:05:14.235Z,39.97
2022-08-17T19:07:45.037Z,41.10
2022-08-17T19:10:22.348Z,39.90
2022-08-17T19:13:00.594Z,38.07
2022-08-17T19:15:34.605Z,38.47
2022-08-17T19:18:09.906Z,39.93
2022-08-17T19:20:45.316Z,41.20
2022-08-17T19:23:20.169Z,36.23
2022-08-17T19:25:54.026Z,38.80
2022-08-17T19:28:27.854Z,38.97
2022-08-17T19:30:57.908Z,37.80
2022-08-17T19:33:26.824Z,38.00
2022-08-17T19:36:04.635Z,43.43
2022-08-17T19:38:42.978Z,39.73
2022-08-17T19:41:20.261Z,40.17
2022-08-17T19:44:09.614Z,38.87
2022-08-17T19:46:50.468Z,37.57
2022-08-17T19:49:33.522Z,39.80
2022-08-17T19:52:37.788Z,40.27
2022-08-17T19:55:16.941Z,40.73
2022-08-17T19:57:57.038Z,39.03
2022-08-17T20:00:25.150Z,41.17
2022-08-17T20:02:58.516Z,42.30
2022-08-17T20:05:30.155Z,43.63
2022-08-17T20:08:05.493Z,44.47
2022-08-17T20:10:45.132Z,46.70
2022-08-17T20:13:33.006Z,45.13
2022-08-17T20:16:02.903Z,47.13
2022-08-17T20:18:37.639Z,51.40
2022-08-17T20:21:20.063Z,45.67
2022-08-17T20:23:56.972Z,46.60
2022-08-17T20:26:27.563Z,45.97
2022-08-17T20:29:37.655Z,49.67
2022-08-17T20:32:19.797Z,57.07
2022-08-17T20:34:48.958Z,50.30
2022-08-17T20:37:31.084Z,46.07
2022-08-17T20:40:23.808Z,49.23
2022-08-17T20:42:51.684Z,52.30
2022-08-17T20:46:11.313Z,58.83
2022-08-17T20:48:45.955Z,50.23
2022-08-17T20:51:34.585Z,49.40
2022-08-17T20:54:44.369Z,49.60
2022-08-17T20:57:48.818Z,47.00
2022-08-17T21:00:45.866Z,47.53
2022-08-17T21:03:59.736Z,46.93
2022-08-17T21:06:29.761Z,48.00
2022-08-17T21:09:19.250Z,49.37
2022-08-17T21:12:04.637Z,49.10
2022-08-17T21:14:57.999Z,47.10
2022-08-17T21:17:49.559Z,48.17
2022-08-17T21:20:32.604Z,50.87
2022-08-17T21:23:28.099Z,47.43
2022-08-17T21:26:10.875Z,46.73
2022-08-17T21:29:00.681Z,48.53
2022-08-17T21:31:35.777Z,48.37
2022-08-17T21:34:30.155Z,44.47
2022-08-17T21:37:39.118Z,49.00
2022-08-17T21:40:36.215Z,48.27
2022-08-17T21:43:23.184Z,51.80
2022-08-17T21:46:02.005Z,48.00
2022-08-17T21:48:32.126Z,48.13
2022-08-17T21:51:18.938Z,48.60
2022-08-17T21:53:51.113Z,48.17
2022-08-17T21:56:25.874Z,47.70
2022-08-17T21:59:01.219Z,45.37
2022-08-17T22:01:35.500Z,43.20
2022-08-17T22:04:17.750Z,57.03
2022-08-17T22:06:56.484Z,45.50
2022-08-17T22:09:29.595Z,53.90
2022-08-17T22:12:07.096Z,56.43
2022-08-17T22:14:52.576Z,50.20
2022-08-17T22:17:25.257Z,50.63
2022-08-17T22:19:57.302Z,55.67
2022-08-17T22:22:33.925Z,61.80
2022-08-17T22:25:07.660Z,54.83
2022-08-17T22:27:57.952Z,55.17
2022-08-17T22:30:33.048Z,56.83
2022-08-17T22:33:02.485Z,53.80
2022-08-17T22:35:48.127Z,52.63
2022-08-17T22:38:32.150Z,51.00
2022-08-17T22:41:34.422Z,54.30
2022-08-17T22:44:17.176Z,47.77
2022-08-17T22:47:29.270Z,53.40
2022-08-17T22:49:59.404Z,53.77
2022-08-17T22:52:33.814Z,52.87
2022-08-17T22:55:35.494Z,58.77
2022-08-17T22:58:28.912Z,51.40
2022-08-17T23:00:56.908Z,49.57
2022-08-17T23:03:28.393Z,48.63
2022-08-17T23:06:05.940Z,47.73
2022-08-17T23:08:36.950Z,45.10
2022-08-17T23:11:07.967Z,47.10
2022-08-17T23:13:38.020Z,47.77
2022-08-17T23:16:06.154Z,53.40
2022-08-17T23:18:34.108Z,45.10
2022-08-17T23:21:02.397Z,43.87
2022-08-17T23:23:31.219Z,47.43
2022-08-17T23:25:59.133Z,47.20
2022-08-17T23:28:27.299Z,50.57
2022-08-17T23:30:56.550Z,48.30
2022-08-17T23:33:30.859Z,48.00
2022-08-17T23:35:59.547Z,50.13
2022-08-17T23:38:28.864Z,46.17
2022-08-17T23:40:59.855Z,43.90
2022-08-17T23:43:29.657Z,41.40
2022-08-17T23:46:00.572Z,43.97
2022-08-17T23:48:35.658Z,44.83
2022-08-17T23:51:09.739Z,46.57
2022-08-17T23:53:40.323Z,44.47
2022-08-17T23:56:11.241Z,47.50
2022-08-17T23:58:41.947Z,44.53
